sensor_id;sensor_type;location;lat;lon;timestamp;temperature;humidity
45409;DHT22;31162;51.076;3.784;2023-07-13T00:00:12;17.30;99.90
45409;DHT22;31162;51.076;3.784;2023-07-13T00:02:42;17.30;99.90
45409;DHT22;31162;51.076;3.784;2023-07-13T00:05:08;17.20;99.90
45409;DHT22;31162;51.076;3.784;2023-07-13T00:07:34;17.20;99.90
45409;DHT22;31162;51.076;3.784;2023-07-13T00:10:01;17.20;99.90
45409;DHT22;31162;51.076;3.784;2023-07-13T00:12:33;17.20;99.90
45409;DHT22;31162;51.076;3.784;2023-07-13T00:15:00;17.10;99.90
45409;DHT22;31162;51.076;3.784;2023-07-13T00:17:26;17.10;99.90
45409;DHT22;31162;51.076;3.784;2023-07-13T00:19:52;17.00;99.90
45409;DHT22;31162;51.076;3.784;2023-07-13T00:22:19;16.90;99.90
45409;DHT22;31162;51.076;3.784;2023-07-13T00:24:45;17.00;99.90
45409;DHT22;31162;51.076;3.784;2023-07-13T00:27:11;17.00;99.90
45409;DHT22;31162;51.076;3.784;2023-07-13T00:29:37;17.00;99.90
45409;DHT22;31162;51.076;3.784;2023-07-13T00:32:05;17.00;99.90
45409;DHT22;31162;51.076;3.784;2023-07-13T00:34:31;17.00;99.90
45409;DHT22;31162;51.076;3.784;2023-07-13T00:36:57;17.00;99.90
45409;DHT22;31162;51.076;3.784;2023-07-13T00:39:23;17.00;99.90
45409;DHT22;31162;51.076;3.784;2023-07-13T00:41:49;17.10;99.90
45409;DHT22;31162;51.076;3.784;2023-07-13T00:44:16;17.00;99.90
45409;DHT22;31162;51.076;3.784;2023-07-13T00:46:42;17.00;99.90
45409;DHT22;31162;51.076;3.784;2023-07-13T00:49:11;17.00;99.90
45409;DHT22;31162;51.076;3.784;2023-07-13T00:52:03;17.00;99.90
45409;DHT22;31162;51.076;3.784;2023-07-13T00:54:31;16.90;99.90
45409;DHT22;31162;51.076;3.784;2023-07-13T00:57:00;16.90;99.90
45409;DHT22;31162;51.076;3.784;2023-07-13T00:59:27;16.80;99.90
45409;DHT22;31162;51.076;3.784;2023-07-13T01:01:53;16.80;99.90
45409;DHT22;31162;51.076;3.784;2023-07-13T01:04:19;16.80;99.90
45409;DHT22;31162;51.076;3.784;2023-07-13T01:06:45;16.80;99.90
45409;DHT22;31162;51.076;3.784;2023-07-13T01:09:13;16.80;99.90
45409;DHT22;31162;51.076;3.784;2023-07-13T01:11:40;16.80;99.90
45409;DHT22;31162;51.076;3.784;2023-07-13T01:14:07;16.80;99.90
45409;DHT22;31162;51.076;3.784;2023-07-13T01:16:35;16.80;99.90
45409;DHT22;31162;51.076;3.784;2023-07-13T01:19:01;16.70;99.90
45409;DHT22;31162;51.076;3.784;2023-07-13T01:21:31;16.70;99.90
45409;DHT22;31162;51.076;3.784;2023-07-13T01:23:58;16.70;99.90
45409;DHT22;31162;51.076;3.784;2023-07-13T01:26:23;16.70;99.90
45409;DHT22;31162;51.076;3.784;2023-07-13T01:28:49;16.60;99.90
45409;DHT22;31162;51.076;3.784;2023-07-13T01:31:15;16.60;99.90
45409;DHT22;31162;51.076;3.784;2023-07-13T01:33:41;16.60;99.90
45409;DHT22;31162;51.076;3.784;2023-07-13T01:36:08;16.60;99.90
45409;DHT22;31162;51.076;3.784;2023-07-13T01:38:35;16.60;99.90
45409;DHT22;31162;51.076;3.784;2023-07-13T01:41:01;16.70;99.90
45409;DHT22;31162;51.076;3.784;2023-07-13T01:43:27;16.70;99.90
45409;DHT22;31162;51.076;3.784;2023-07-13T01:45:52;16.70;99.90
45409;DHT22;31162;51.076;3.784;2023-07-13T01:48:18;16.60;99.90
45409;DHT22;31162;51.076;3.784;2023-07-13T01:50:45;16.60;99.90
45409;DHT22;31162;51.076;3.784;2023-07-13T01:53:11;16.60;99.90
45409;DHT22;31162;51.076;3.784;2023-07-13T01:55:37;16.60;99.90
45409;DHT22;31162;51.076;3.784;2023-07-13T01:58:03;16.60;99.90
45409;DHT22;31162;51.076;3.784;2023-07-13T02:00:29;16.60;99.90
45409;DHT22;31162;51.076;3.784;2023-07-13T02:02:55;16.50;99.90
45409;DHT22;31162;51.076;3.784;2023-07-13T02:05:21;16.60;99.90
45409;DHT22;31162;51.076;3.784;2023-07-13T02:07:49;16.50;99.90
45409;DHT22;31162;51.076;3.784;2023-07-13T02:10:15;16.40;99.90
45409;DHT22;31162;51.076;3.784;2023-07-13T02:12:41;16.40;99.90
45409;DHT22;31162;51.076;3.784;2023-07-13T02:15:07;16.50;99.90
45409;DHT22;31162;51.076;3.784;2023-07-13T02:17:34;16.70;99.90
45409;DHT22;31162;51.076;3.784;2023-07-13T02:20:01;16.80;99.90
45409;DHT22;31162;51.076;3.784;2023-07-13T02:22:27;16.80;99.90
45409;DHT22;31162;51.076;3.784;2023-07-13T02:24:53;16.90;99.90
45409;DHT22;31162;51.076;3.784;2023-07-13T02:27:19;16.90;99.90
45409;DHT22;31162;51.076;3.784;2023-07-13T02:29:45;16.90;99.90
45409;DHT22;31162;51.076;3.784;2023-07-13T02:32:10;16.90;99.90
45409;DHT22;31162;51.076;3.784;2023-07-13T02:34:36;16.80;99.90
45409;DHT22;31162;51.076;3.784;2023-07-13T02:37:02;16.80;99.90
45409;DHT22;31162;51.076;3.784;2023-07-13T02:39:28;16.70;99.90
45409;DHT22;31162;51.076;3.784;2023-07-13T02:41:53;16.70;99.90
45409;DHT22;31162;51.076;3.784;2023-07-13T02:44:19;16.60;99.90
45409;DHT22;31162;51.076;3.784;2023-07-13T02:46:45;16.60;99.90
45409;DHT22;31162;51.076;3.784;2023-07-13T02:49:10;16.50;99.90
45409;DHT22;31162;51.076;3.784;2023-07-13T02:51:36;16.50;99.90
45409;DHT22;31162;51.076;3.784;2023-07-13T02:54:03;16.50;99.90
45409;DHT22;31162;51.076;3.784;2023-07-13T02:56:30;16.40;99.90
45409;DHT22;31162;51.076;3.784;2023-07-13T02:58:56;16.30;99.90
45409;DHT22;31162;51.076;3.784;2023-07-13T03:01:22;16.30;99.90
45409;DHT22;31162;51.076;3.784;2023-07-13T03:03:50;16.30;99.90
45409;DHT22;31162;51.076;3.784;2023-07-13T03:06:16;16.30;99.90
45409;DHT22;31162;51.076;3.784;2023-07-13T03:08:43;16.20;99.90
45409;DHT22;31162;51.076;3.784;2023-07-13T03:11:14;16.20;99.90
45409;DHT22;31162;51.076;3.784;2023-07-13T03:13:41;16.20;99.90
45409;DHT22;31162;51.076;3.784;2023-07-13T03:16:07;16.20;99.90
45409;DHT22;31162;51.076;3.784;2023-07-13T03:18:33;16.10;99.90
45409;DHT22;31162;51.076;3.784;2023-07-13T03:20:59;16.20;99.90
45409;DHT22;31162;51.076;3.784;2023-07-13T03:23:25;16.10;99.90
45409;DHT22;31162;51.076;3.784;2023-07-13T03:26:01;16.10;99.90
45409;DHT22;31162;51.076;3.784;2023-07-13T03:28:27;16.20;99.90
45409;DHT22;31162;51.076;3.784;2023-07-13T03:31:08;16.20;99.90
45409;DHT22;31162;51.076;3.784;2023-07-13T03:33:34;16.20;99.90
45409;DHT22;31162;51.076;3.784;2023-07-13T03:35:59;16.20;99.90
45409;DHT22;31162;51.076;3.784;2023-07-13T03:38:26;16.30;99.90
45409;DHT22;31162;51.076;3.784;2023-07-13T03:40:52;16.40;99.90
45409;DHT22;31162;51.076;3.784;2023-07-13T03:43:18;16.40;99.90
45409;DHT22;31162;51.076;3.784;2023-07-13T03:45:43;16.40;99.90
45409;DHT22;31162;51.076;3.784;2023-07-13T03:48:09;16.40;99.90
45409;DHT22;31162;51.076;3.784;2023-07-13T03:50:35;16.50;99.90
45409;DHT22;31162;51.076;3.784;2023-07-13T03:53:00;16.50;99.90
45409;DHT22;31162;51.076;3.784;2023-07-13T03:55:26;16.60;99.90
45409;DHT22;31162;51.076;3.784;2023-07-13T03:57:58;16.40;99.90
45409;DHT22;31162;51.076;3.784;2023-07-13T04:00:24;16.40;99.90
45409;DHT22;31162;51.076;3.784;2023-07-13T04:02:50;16.40;99.90
45409;DHT22;31162;51.076;3.784;2023-07-13T04:05:16;16.40;99.90
45409;DHT22;31162;51.076;3.784;2023-07-13T04:07:42;16.40;99.90
45409;DHT22;31162;51.076;3.784;2023-07-13T04:10:08;16.60;99.90
45409;DHT22;31162;51.076;3.784;2023-07-13T04:12:33;16.60;99.90
45409;DHT22;31162;51.076;3.784;2023-07-13T04:14:59;16.70;99.90
45409;DHT22;31162;51.076;3.784;2023-07-13T04:17:25;16.80;99.90
45409;DHT22;31162;51.076;3.784;2023-07-13T04:19:51;16.80;99.90
45409;DHT22;31162;51.076;3.784;2023-07-13T04:22:16;16.90;99.90
45409;DHT22;31162;51.076;3.784;2023-07-13T04:24:42;17.00;99.90
45409;DHT22;31162;51.076;3.784;2023-07-13T04:27:08;17.10;99.90
45409;DHT22;31162;51.076;3.784;2023-07-13T04:29:34;17.20;99.90
45409;DHT22;31162;51.076;3.784;2023-07-13T04:31:59;17.30;99.90
45409;DHT22;31162;51.076;3.784;2023-07-13T04:34:25;17.40;99.90
45409;DHT22;31162;51.076;3.784;2023-07-13T04:36:51;17.50;99.90
45409;DHT22;31162;51.076;3.784;2023-07-13T04:39:17;17.50;99.90
45409;DHT22;31162;51.076;3.784;2023-07-13T04:41:43;17.60;99.90
45409;DHT22;31162;51.076;3.784;2023-07-13T04:44:08;17.70;99.90
45409;DHT22;31162;51.076;3.784;2023-07-13T04:46:34;17.70;99.90
45409;DHT22;31162;51.076;3.784;2023-07-13T04:49:00;17.50;99.90
45409;DHT22;31162;51.076;3.784;2023-07-13T04:51:26;17.50;99.90
45409;DHT22;31162;51.076;3.784;2023-07-13T04:53:52;17.70;99.90
45409;DHT22;31162;51.076;3.784;2023-07-13T04:56:18;17.80;99.90
45409;DHT22;31162;51.076;3.784;2023-07-13T04:58:45;17.80;99.90
45409;DHT22;31162;51.076;3.784;2023-07-13T05:01:11;17.80;99.90
45409;DHT22;31162;51.076;3.784;2023-07-13T05:03:36;17.90;99.90
45409;DHT22;31162;51.076;3.784;2023-07-13T05:06:07;18.00;99.90
45409;DHT22;31162;51.076;3.784;2023-07-13T05:08:33;18.10;99.90
45409;DHT22;31162;51.076;3.784;2023-07-13T05:11:04;18.20;99.90
45409;DHT22;31162;51.076;3.784;2023-07-13T05:13:29;18.30;99.90
45409;DHT22;31162;51.076;3.784;2023-07-13T05:16:00;18.50;99.90
45409;DHT22;31162;51.076;3.784;2023-07-13T05:18:27;18.60;99.90
45409;DHT22;31162;51.076;3.784;2023-07-13T05:21:04;18.70;99.90
45409;DHT22;31162;51.076;3.784;2023-07-13T05:23:32;18.80;99.90
45409;DHT22;31162;51.076;3.784;2023-07-13T05:25:57;18.90;99.90
45409;DHT22;31162;51.076;3.784;2023-07-13T05:28:24;18.90;99.90
45409;DHT22;31162;51.076;3.784;2023-07-13T05:30:50;19.00;99.90
45409;DHT22;31162;51.076;3.784;2023-07-13T05:33:16;19.10;99.90
45409;DHT22;31162;51.076;3.784;2023-07-13T05:35:42;19.10;99.90
45409;DHT22;31162;51.076;3.784;2023-07-13T05:38:07;19.10;99.90
45409;DHT22;31162;51.076;3.784;2023-07-13T05:40:33;19.30;99.90
45409;DHT22;31162;51.076;3.784;2023-07-13T05:42:59;19.40;99.90
45409;DHT22;31162;51.076;3.784;2023-07-13T05:45:24;19.60;99.90
45409;DHT22;31162;51.076;3.784;2023-07-13T05:47:51;19.80;99.90
45409;DHT22;31162;51.076;3.784;2023-07-13T05:50:17;20.00;99.90
45409;DHT22;31162;51.076;3.784;2023-07-13T05:52:42;20.10;99.90
45409;DHT22;31162;51.076;3.784;2023-07-13T05:55:08;20.00;99.90
45409;DHT22;31162;51.076;3.784;2023-07-13T05:57:34;20.10;99.90
45409;DHT22;31162;51.076;3.784;2023-07-13T06:00:00;20.00;99.90
45409;DHT22;31162;51.076;3.784;2023-07-13T06:02:25;20.10;99.90
45409;DHT22;31162;51.076;3.784;2023-07-13T06:04:52;20.40;99.90
45409;DHT22;31162;51.076;3.784;2023-07-13T06:07:17;20.60;99.90
45409;DHT22;31162;51.076;3.784;2023-07-13T06:09:43;20.60;99.90
45409;DHT22;31162;51.076;3.784;2023-07-13T06:12:09;20.90;99.90
45409;DHT22;31162;51.076;3.784;2023-07-13T06:14:35;21.20;99.90
45409;DHT22;31162;51.076;3.784;2023-07-13T06:17:00;21.30;99.90
45409;DHT22;31162;51.076;3.784;2023-07-13T06:19:26;21.40;99.90
45409;DHT22;31162;51.076;3.784;2023-07-13T06:21:51;21.40;99.90
45409;DHT22;31162;51.076;3.784;2023-07-13T06:24:17;21.60;99.90
45409;DHT22;31162;51.076;3.784;2023-07-13T06:26:43;21.70;99.90
45409;DHT22;31162;51.076;3.784;2023-07-13T06:29:08;21.70;99.90
45409;DHT22;31162;51.076;3.784;2023-07-13T06:31:34;21.70;99.90
45409;DHT22;31162;51.076;3.784;2023-07-13T06:34:00;21.70;99.90
45409;DHT22;31162;51.076;3.784;2023-07-13T06:36:25;21.90;99.90
45409;DHT22;31162;51.076;3.784;2023-07-13T06:38:51;22.30;99.90
45409;DHT22;31162;51.076;3.784;2023-07-13T06:41:17;22.40;99.90
45409;DHT22;31162;51.076;3.784;2023-07-13T06:43:42;22.40;99.90
45409;DHT22;31162;51.076;3.784;2023-07-13T06:46:08;22.60;99.90
45409;DHT22;31162;51.076;3.784;2023-07-13T06:48:34;23.40;99.90
45409;DHT22;31162;51.076;3.784;2023-07-13T06:50:59;24.80;99.90
45409;DHT22;31162;51.076;3.784;2023-07-13T06:53:25;26.40;99.90
45409;DHT22;31162;51.076;3.784;2023-07-13T06:55:51;26.60;99.90
45409;DHT22;31162;51.076;3.784;2023-07-13T06:58:18;27.10;99.90
45409;DHT22;31162;51.076;3.784;2023-07-13T07:00:44;27.00;99.90
45409;DHT22;31162;51.076;3.784;2023-07-13T07:03:09;26.00;99.90
45409;DHT22;31162;51.076;3.784;2023-07-13T07:05:35;25.00;99.90
45409;DHT22;31162;51.076;3.784;2023-07-13T07:08:01;25.10;99.90
45409;DHT22;31162;51.076;3.784;2023-07-13T07:10:28;25.30;99.90
45409;DHT22;31162;51.076;3.784;2023-07-13T07:12:54;26.90;99.90
45409;DHT22;31162;51.076;3.784;2023-07-13T07:15:20;29.10;99.90
45409;DHT22;31162;51.076;3.784;2023-07-13T07:17:45;30.20;99.30
45409;DHT22;31162;51.076;3.784;2023-07-13T07:20:12;31.90;96.00
45409;DHT22;31162;51.076;3.784;2023-07-13T07:22:37;32.90;94.00
45409;DHT22;31162;51.076;3.784;2023-07-13T07:25:03;34.90;92.10
45409;DHT22;31162;51.076;3.784;2023-07-13T07:27:29;36.40;88.70
45409;DHT22;31162;51.076;3.784;2023-07-13T07:29:55;37.40;84.60
45409;DHT22;31162;51.076;3.784;2023-07-13T07:32:22;38.00;81.80
45409;DHT22;31162;51.076;3.784;2023-07-13T07:34:48;38.40;81.50
45409;DHT22;31162;51.076;3.784;2023-07-13T07:37:14;38.80;78.90
45409;DHT22;31162;51.076;3.784;2023-07-13T07:39:40;37.50;78.20
45409;DHT22;31162;51.076;3.784;2023-07-13T07:42:06;36.40;79.50
45409;DHT22;31162;51.076;3.784;2023-07-13T07:44:32;35.30;80.20
45409;DHT22;31162;51.076;3.784;2023-07-13T07:46:58;34.50;81.10
45409;DHT22;31162;51.076;3.784;2023-07-13T07:49:24;35.10;81.30
45409;DHT22;31162;51.076;3.784;2023-07-13T07:51:50;35.60;80.10
45409;DHT22;31162;51.076;3.784;2023-07-13T07:54:16;36.80;78.50
45409;DHT22;31162;51.076;3.784;2023-07-13T07:56:41;35.20;78.90
45409;DHT22;31162;51.076;3.784;2023-07-13T07:59:07;35.30;78.90
45409;DHT22;31162;51.076;3.784;2023-07-13T08:01:33;34.70;80.50
45409;DHT22;31162;51.076;3.784;2023-07-13T08:03:58;35.00;79.20
45409;DHT22;31162;51.076;3.784;2023-07-13T08:06:24;35.30;79.00
45409;DHT22;31162;51.076;3.784;2023-07-13T08:08:50;35.90;78.40
45409;DHT22;31162;51.076;3.784;2023-07-13T08:11:16;35.10;78.90
45409;DHT22;31162;51.076;3.784;2023-07-13T08:13:42;33.20;81.40
45409;DHT22;31162;51.076;3.784;2023-07-13T08:16:07;32.60;81.70
45409;DHT22;31162;51.076;3.784;2023-07-13T08:18:33;32.10;82.50
45409;DHT22;31162;51.076;3.784;2023-07-13T08:21:04;32.10;82.60
45409;DHT22;31162;51.076;3.784;2023-07-13T08:23:29;32.20;84.00
45409;DHT22;31162;51.076;3.784;2023-07-13T08:25:55;32.20;83.20
45409;DHT22;31162;51.076;3.784;2023-07-13T08:28:22;31.20;83.90
45409;DHT22;31162;51.076;3.784;2023-07-13T08:30:48;30.90;84.80
45409;DHT22;31162;51.076;3.784;2023-07-13T08:33:18;30.40;86.40
45409;DHT22;31162;51.076;3.784;2023-07-13T08:35:48;30.10;86.00
45409;DHT22;31162;51.076;3.784;2023-07-13T08:38:14;31.50;85.30
45409;DHT22;31162;51.076;3.784;2023-07-13T08:40:41;30.60;84.00
45409;DHT22;31162;51.076;3.784;2023-07-13T08:43:20;28.90;87.50
45409;DHT22;31162;51.076;3.784;2023-07-13T08:46:13;28.80;88.50
45409;DHT22;31162;51.076;3.784;2023-07-13T08:48:51;31.80;83.90
45409;DHT22;31162;51.076;3.784;2023-07-13T08:53:54;35.50;79.60
45409;DHT22;31162;51.076;3.784;2023-07-13T08:56:23;36.70;77.70
45409;DHT22;31162;51.076;3.784;2023-07-13T08:58:53;37.30;75.70
45409;DHT22;31162;51.076;3.784;2023-07-13T09:01:33;38.00;74.30
45409;DHT22;31162;51.076;3.784;2023-07-13T09:04:14;38.80;72.90
45409;DHT22;31162;51.076;3.784;2023-07-13T09:14:34;40.00;71.40
45409;DHT22;31162;51.076;3.784;2023-07-13T09:17:08;41.00;70.00
45409;DHT22;31162;51.076;3.784;2023-07-13T09:19:36;39.10;69.90
45409;DHT22;31162;51.076;3.784;2023-07-13T09:22:04;38.90;70.20
45409;DHT22;31162;51.076;3.784;2023-07-13T09:24:39;38.80;70.30
45409;DHT22;31162;51.076;3.784;2023-07-13T09:27:19;39.80;69.90
45409;DHT22;31162;51.076;3.784;2023-07-13T09:30:01;39.40;69.30
45409;DHT22;31162;51.076;3.784;2023-07-13T09:32:29;38.70;69.10
45409;DHT22;31162;51.076;3.784;2023-07-13T09:34:55;38.90;69.40
45409;DHT22;31162;51.076;3.784;2023-07-13T09:37:22;39.40;68.10
45409;DHT22;31162;51.076;3.784;2023-07-13T09:39:49;39.90;68.10
45409;DHT22;31162;51.076;3.784;2023-07-13T09:42:18;39.20;68.30
45409;DHT22;31162;51.076;3.784;2023-07-13T09:47:17;38.50;69.00
45409;DHT22;31162;51.076;3.784;2023-07-13T09:49:43;38.40;69.20
45409;DHT22;31162;51.076;3.784;2023-07-13T09:52:15;39.20;69.00
45409;DHT22;31162;51.076;3.784;2023-07-13T09:54:45;39.30;68.40
45409;DHT22;31162;51.076;3.784;2023-07-13T09:57:16;39.40;68.70
45409;DHT22;31162;51.076;3.784;2023-07-13T09:59:50;40.20;67.40
45409;DHT22;31162;51.076;3.784;2023-07-13T10:05:10;38.70;68.70
45409;DHT22;31162;51.076;3.784;2023-07-13T10:07:44;38.90;68.90
45409;DHT22;31162;51.076;3.784;2023-07-13T10:10:22;39.20;68.10
45409;DHT22;31162;51.076;3.784;2023-07-13T10:12:49;37.80;68.90
45409;DHT22;31162;51.076;3.784;2023-07-13T10:15:19;37.80;69.80
45409;DHT22;31162;51.076;3.784;2023-07-13T10:17:46;37.50;69.60
45409;DHT22;31162;51.076;3.784;2023-07-13T10:20:12;36.40;69.50
45409;DHT22;31162;51.076;3.784;2023-07-13T10:23:01;36.20;69.70
45409;DHT22;31162;51.076;3.784;2023-07-13T10:25:34;36.30;69.20
45409;DHT22;31162;51.076;3.784;2023-07-13T10:28:11;35.70;70.20
45409;DHT22;31162;51.076;3.784;2023-07-13T10:30:42;35.10;71.50
45409;DHT22;31162;51.076;3.784;2023-07-13T10:33:12;35.20;70.70
45409;DHT22;31162;51.076;3.784;2023-07-13T10:35:40;33.70;71.90
45409;DHT22;31162;51.076;3.784;2023-07-13T10:38:11;32.40;73.50
45409;DHT22;31162;51.076;3.784;2023-07-13T10:40:58;31.60;74.60
45409;DHT22;31162;51.076;3.784;2023-07-13T10:43:36;30.70;76.20
45409;DHT22;31162;51.076;3.784;2023-07-13T10:46:05;30.10;76.30
45409;DHT22;31162;51.076;3.784;2023-07-13T10:48:32;29.10;81.70
45409;DHT22;31162;51.076;3.784;2023-07-13T10:51:00;28.10;84.70
45409;DHT22;31162;51.076;3.784;2023-07-13T10:53:37;27.10;87.20
45409;DHT22;31162;51.076;3.784;2023-07-13T10:58:43;25.90;91.70
45409;DHT22;31162;51.076;3.784;2023-07-13T11:01:12;25.40;94.10
45409;DHT22;31162;51.076;3.784;2023-07-13T11:04:14;24.80;97.60
45409;DHT22;31162;51.076;3.784;2023-07-13T11:06:43;23.80;99.90
45409;DHT22;31162;51.076;3.784;2023-07-13T11:12:25;22.60;99.90
45409;DHT22;31162;51.076;3.784;2023-07-13T11:20:30;21.90;99.90
45409;DHT22;31162;51.076;3.784;2023-07-13T11:23:18;22.00;99.90
45409;DHT22;31162;51.076;3.784;2023-07-13T11:25:45;22.10;99.90
45409;DHT22;31162;51.076;3.784;2023-07-13T11:30:39;22.10;99.90
45409;DHT22;31162;51.076;3.784;2023-07-13T11:38:20;23.40;99.90
45409;DHT22;31162;51.076;3.784;2023-07-13T11:40:48;23.90;99.90
45409;DHT22;31162;51.076;3.784;2023-07-13T11:43:16;24.50;99.90
45409;DHT22;31162;51.076;3.784;2023-07-13T11:45:43;25.20;99.90
45409;DHT22;31162;51.076;3.784;2023-07-13T11:48:27;26.00;99.90
45409;DHT22;31162;51.076;3.784;2023-07-13T11:51:00;26.70;99.90
45409;DHT22;31162;51.076;3.784;2023-07-13T11:53:30;27.70;99.90
45409;DHT22;31162;51.076;3.784;2023-07-13T11:56:00;28.60;99.90
45409;DHT22;31162;51.076;3.784;2023-07-13T11:58:26;29.10;99.90
45409;DHT22;31162;51.076;3.784;2023-07-13T12:00:55;29.70;99.90
45409;DHT22;31162;51.076;3.784;2023-07-13T12:03:24;30.20;99.90
45409;DHT22;31162;51.076;3.784;2023-07-13T12:06:02;30.40;99.90
45409;DHT22;31162;51.076;3.784;2023-07-13T12:08:29;30.90;99.50
45409;DHT22;31162;51.076;3.784;2023-07-13T12:11:04;31.30;98.20
45409;DHT22;31162;51.076;3.784;2023-07-13T12:13:35;31.40;97.60
45409;DHT22;31162;51.076;3.784;2023-07-13T12:16:01;31.10;97.70
45409;DHT22;31162;51.076;3.784;2023-07-13T12:18:30;30.30;97.50
45409;DHT22;31162;51.076;3.784;2023-07-13T12:20:58;29.80;98.00
45409;DHT22;31162;51.076;3.784;2023-07-13T12:23:31;29.50;98.50
45409;DHT22;31162;51.076;3.784;2023-07-13T12:25:59;29.50;99.10
45409;DHT22;31162;51.076;3.784;2023-07-13T12:31:05;30.20;98.00
45409;DHT22;31162;51.076;3.784;2023-07-13T12:33:31;30.80;96.90
45409;DHT22;31162;51.076;3.784;2023-07-13T12:36:01;30.70;96.20
45409;DHT22;31162;51.076;3.784;2023-07-13T12:38:27;30.40;96.40
45409;DHT22;31162;51.076;3.784;2023-07-13T12:40:53;30.30;96.20
45409;DHT22;31162;51.076;3.784;2023-07-13T12:43:22;30.40;95.70
45409;DHT22;31162;51.076;3.784;2023-07-13T12:46:01;30.40;95.30
45409;DHT22;31162;51.076;3.784;2023-07-13T12:48:27;30.30;95.20
45409;DHT22;31162;51.076;3.784;2023-07-13T12:50:54;30.00;94.30
45409;DHT22;31162;51.076;3.784;2023-07-13T12:53:28;29.60;94.50
45409;DHT22;31162;51.076;3.784;2023-07-13T12:55:59;29.50;94.70
45409;DHT22;31162;51.076;3.784;2023-07-13T12:58:32;29.40;94.80
45409;DHT22;31162;51.076;3.784;2023-07-13T13:01:03;29.20;95.00
45409;DHT22;31162;51.076;3.784;2023-07-13T13:03:35;28.90;94.90
45409;DHT22;31162;51.076;3.784;2023-07-13T13:08:34;29.20;95.00
45409;DHT22;31162;51.076;3.784;2023-07-13T13:11:01;29.80;95.20
45409;DHT22;31162;51.076;3.784;2023-07-13T13:13:27;29.90;94.10
45409;DHT22;31162;51.076;3.784;2023-07-13T13:15:53;29.40;94.40
45409;DHT22;31162;51.076;3.784;2023-07-13T13:18:22;28.80;94.70
45409;DHT22;31162;51.076;3.784;2023-07-13T13:20:51;28.70;94.90
45409;DHT22;31162;51.076;3.784;2023-07-13T13:23:19;29.00;95.20
45409;DHT22;31162;51.076;3.784;2023-07-13T13:25:49;29.40;94.80
45409;DHT22;31162;51.076;3.784;2023-07-13T13:28:17;29.50;94.50
45409;DHT22;31162;51.076;3.784;2023-07-13T13:30:44;29.10;93.40
45409;DHT22;31162;51.076;3.784;2023-07-13T13:33:12;28.90;93.40
45409;DHT22;31162;51.076;3.784;2023-07-13T13:35:39;29.00;92.80
45409;DHT22;31162;51.076;3.784;2023-07-13T13:38:20;28.90;92.40
45409;DHT22;31162;51.076;3.784;2023-07-13T13:40:46;29.10;91.80
45409;DHT22;31162;51.076;3.784;2023-07-13T13:43:21;29.40;91.10
45409;DHT22;31162;51.076;3.784;2023-07-13T13:45:51;29.50;91.50
45409;DHT22;31162;51.076;3.784;2023-07-13T13:48:29;29.60;91.60
45409;DHT22;31162;51.076;3.784;2023-07-13T13:50:56;29.70;91.10
45409;DHT22;31162;51.076;3.784;2023-07-13T13:53:22;30.00;90.70
45409;DHT22;31162;51.076;3.784;2023-07-13T13:55:49;29.90;90.90
45409;DHT22;31162;51.076;3.784;2023-07-13T13:58:15;30.00;90.20
45409;DHT22;31162;51.076;3.784;2023-07-13T14:00:41;29.80;88.40
45409;DHT22;31162;51.076;3.784;2023-07-13T14:03:20;30.00;89.40
45409;DHT22;31162;51.076;3.784;2023-07-13T14:05:48;30.30;89.30
45409;DHT22;31162;51.076;3.784;2023-07-13T14:08:16;30.30;87.80
45409;DHT22;31162;51.076;3.784;2023-07-13T14:10:43;29.90;88.20
45409;DHT22;31162;51.076;3.784;2023-07-13T14:13:17;29.80;87.80
45409;DHT22;31162;51.076;3.784;2023-07-13T14:15:44;29.90;88.50
45409;DHT22;31162;51.076;3.784;2023-07-13T14:18:10;29.70;86.50
45409;DHT22;31162;51.076;3.784;2023-07-13T14:20:35;29.50;87.00
45409;DHT22;31162;51.076;3.784;2023-07-13T14:23:01;29.50;87.60
45409;DHT22;31162;51.076;3.784;2023-07-13T14:25:27;29.40;87.90
45409;DHT22;31162;51.076;3.784;2023-07-13T14:27:57;29.10;87.00
45409;DHT22;31162;51.076;3.784;2023-07-13T14:30:33;29.20;88.00
45409;DHT22;31162;51.076;3.784;2023-07-13T14:32:58;28.70;88.50
45409;DHT22;31162;51.076;3.784;2023-07-13T14:35:24;28.70;89.80
45409;DHT22;31162;51.076;3.784;2023-07-13T14:37:50;28.50;89.60
45409;DHT22;31162;51.076;3.784;2023-07-13T14:40:18;28.40;88.90
45409;DHT22;31162;51.076;3.784;2023-07-13T14:42:44;28.00;89.10
45409;DHT22;31162;51.076;3.784;2023-07-13T14:45:15;28.00;90.10
45409;DHT22;31162;51.076;3.784;2023-07-13T14:47:42;28.10;89.60
45409;DHT22;31162;51.076;3.784;2023-07-13T14:52:39;28.10;87.90
45409;DHT22;31162;51.076;3.784;2023-07-13T14:55:15;27.80;89.00
45409;DHT22;31162;51.076;3.784;2023-07-13T14:57:41;27.70;89.70
45409;DHT22;31162;51.076;3.784;2023-07-13T15:00:21;27.90;90.10
45409;DHT22;31162;51.076;3.784;2023-07-13T15:02:51;28.20;89.80
45409;DHT22;31162;51.076;3.784;2023-07-13T15:05:22;28.60;87.90
45409;DHT22;31162;51.076;3.784;2023-07-13T15:07:52;28.60;87.80
45409;DHT22;31162;51.076;3.784;2023-07-13T15:10:27;28.30;86.80
45409;DHT22;31162;51.076;3.784;2023-07-13T15:12:59;28.10;87.50
45409;DHT22;31162;51.076;3.784;2023-07-13T15:15:27;27.80;88.10
45409;DHT22;31162;51.076;3.784;2023-07-13T15:17:53;27.60;88.80
45409;DHT22;31162;51.076;3.784;2023-07-13T15:20:32;27.50;88.80
45409;DHT22;31162;51.076;3.784;2023-07-13T15:22:58;27.50;89.00
45409;DHT22;31162;51.076;3.784;2023-07-13T15:25:30;27.30;88.60
45409;DHT22;31162;51.076;3.784;2023-07-13T15:27:57;27.20;89.20
45409;DHT22;31162;51.076;3.784;2023-07-13T15:30:26;27.10;89.80
45409;DHT22;31162;51.076;3.784;2023-07-13T15:32:52;27.30;90.00
45409;DHT22;31162;51.076;3.784;2023-07-13T15:35:21;27.40;89.90
45409;DHT22;31162;51.076;3.784;2023-07-13T15:37:49;27.80;90.30
45409;DHT22;31162;51.076;3.784;2023-07-13T15:40:15;28.10;88.20
45409;DHT22;31162;51.076;3.784;2023-07-13T15:42:42;28.10;87.80
45409;DHT22;31162;51.076;3.784;2023-07-13T15:45:23;28.00;86.90
45409;DHT22;31162;51.076;3.784;2023-07-13T15:47:50;27.80;87.60
45409;DHT22;31162;51.076;3.784;2023-07-13T15:50:18;27.80;88.40
45409;DHT22;31162;51.076;3.784;2023-07-13T15:52:48;27.60;87.40
45409;DHT22;31162;51.076;3.784;2023-07-13T15:55:15;27.60;86.50
45409;DHT22;31162;51.076;3.784;2023-07-13T15:57:50;27.70;86.90
45409;DHT22;31162;51.076;3.784;2023-07-13T16:00:25;27.70;86.90
45409;DHT22;31162;51.076;3.784;2023-07-13T16:02:52;27.50;86.80
45409;DHT22;31162;51.076;3.784;2023-07-13T16:05:18;27.40;85.60
45409;DHT22;31162;51.076;3.784;2023-07-13T16:07:49;27.10;85.30
45409;DHT22;31162;51.076;3.784;2023-07-13T16:10:17;26.90;86.80
45409;DHT22;31162;51.076;3.784;2023-07-13T16:12:43;26.70;85.90
45409;DHT22;31162;51.076;3.784;2023-07-13T16:15:17;26.70;87.10
45409;DHT22;31162;51.076;3.784;2023-07-13T16:17:45;26.60;87.10